Time;durP1;ratioP1;P1;durP2;ratioP2;P2;SDS_P1;SDS_P2;PMS_P1;PMS_P2;Temp;Humidity;BMP_temperature;BMP_pressure;BME280_temperature;BME280_humidity;BME280_pressure;Samples;Min_cycle;Max_cycle;Signal;HPM_P1;HPM_P2
2021/05/29 00:00:41;;;;;;;8.70;7.80;;;11.50;99.90;;;;;;5034498;28;20863;-46
2021/05/29 00:03:07;;;;;;;9.60;7.70;;;11.40;99.90;;;;;;5034507;28;20489;-46
2021/05/29 00:05:34;;;;;;;8.53;6.97;;;11.90;99.90;;;;;;5034641;28;20535;-47
2021/05/29 00:08:00;;;;;;;6.80;6.20;;;11.90;99.90;;;;;;5034474;28;20522;-46
2021/05/29 00:10:27;;;;;;;8.97;6.20;;;11.70;99.90;;;;;;5034391;28;20599;-47
2021/05/29 00:12:53;;;;;;;8.07;6.37;;;11.70;99.90;;;;;;5035005;28;20431;-47
2021/05/29 00:15:19;;;;;;;8.70;5.77;;;11.90;99.90;;;;;;5034542;28;20947;-47
2021/05/29 00:17:45;;;;;;;8.73;6.10;;;11.80;99.90;;;;;;5034755;28;20458;-46
2021/05/29 00:20:12;;;;;;;11.83;7.60;;;11.80;99.90;;;;;;5033978;28;20849;-45
2021/05/29 00:22:39;;;;;;;9.00;6.83;;;11.50;99.90;;;;;;5034429;28;20897;-47
2021/05/29 00:25:06;;;;;;;6.07;5.53;;;11.70;99.90;;;;;;5034546;28;20998;-45
2021/05/29 00:27:32;;;;;;;8.00;7.00;;;11.70;99.90;;;;;;5016741;28;21039;-46
2021/05/29 00:29:59;;;;;;;8.17;6.03;;;11.80;99.90;;;;;;5016379;28;20834;-47
2021/05/29 00:32:26;;;;;;;7.07;6.37;;;11.90;99.90;;;;;;5034401;28;21024;-46
2021/05/29 00:34:52;;;;;;;9.50;6.70;;;12.00;99.90;;;;;;5034445;28;20431;-45
2021/05/29 00:37:18;;;;;;;8.53;6.37;;;11.40;99.90;;;;;;5034363;28;20448;-47
2021/05/29 00:39:45;;;;;;;8.60;6.23;;;11.10;99.90;;;;;;5034077;28;20846;-45
2021/05/29 00:42:11;;;;;;;10.17;6.50;;;11.70;99.90;;;;;;5034376;28;20609;-46
2021/05/29 00:44:48;;;;;;;9.07;6.50;;;11.70;99.90;;;;;;5033752;28;20481;-46
2021/05/29 00:47:17;;;;;;;10.07;7.10;;;11.70;99.90;;;;;;5034446;28;20436;-45
2021/05/29 00:49:43;;;;;;;9.23;6.50;;;11.40;99.90;;;;;;5034007;28;20432;-46
2021/05/29 00:52:09;;;;;;;7.57;6.50;;;11.70;99.90;;;;;;5034080;28;20470;-48
2021/05/29 00:54:35;;;;;;;9.23;6.47;;;11.60;99.90;;;;;;5034286;28;20463;-47
2021/05/29 00:57:03;;;;;;;7.40;6.60;;;11.40;99.90;;;;;;5034155;28;20519;-47
2021/05/29 00:59:30;;;;;;;8.43;6.53;;;11.50;99.90;;;;;;5033615;28;20432;-46
2021/05/29 01:01:56;;;;;;;9.90;6.60;;;11.30;99.90;;;;;;5034833;28;20447;-47
2021/05/29 01:04:22;;;;;;;12.50;6.30;;;11.20;99.90;;;;;;5034327;28;20574;-46
2021/05/29 01:06:48;;;;;;;7.33;6.53;;;11.60;99.90;;;;;;5034147;28;20527;-46
2021/05/29 01:09:15;;;;;;;7.20;6.50;;;11.50;99.90;;;;;;5033736;28;20847;-47
2021/05/29 01:11:41;;;;;;;8.33;7.03;;;11.40;99.90;;;;;;5034237;28;20827;-46
2021/05/29 01:14:08;;;;;;;7.00;6.10;;;11.50;99.90;;;;;;5034136;28;20432;-47
2021/05/29 01:16:44;;;;;;;10.90;7.60;;;11.40;99.90;;;;;;5034049;28;20481;-46
2021/05/29 01:19:13;;;;;;;9.13;7.40;;;11.50;99.90;;;;;;5033584;28;20443;-46
2021/05/29 01:21:39;;;;;;;7.67;6.87;;;11.30;99.90;;;;;;5033692;28;20467;-46
2021/05/29 01:24:07;;;;;;;10.80;7.40;;;11.10;99.90;;;;;;5033831;28;20482;-48
2021/05/29 01:26:33;;;;;;;9.43;6.30;;;11.10;99.90;;;;;;5034080;28;20428;-48
2021/05/29 01:28:59;;;;;;;9.53;6.70;;;11.30;99.90;;;;;;5033832;28;20461;-50
2021/05/29 01:31:26;;;;;;;12.20;8.17;;;10.70;99.90;;;;;;5034194;28;20979;-48
2021/05/29 01:33:56;;;;;;;9.73;6.67;;;11.00;99.90;;;;;;5033895;28;20452;-47
2021/05/29 01:36:23;;;;;;;7.47;6.73;;;11.00;99.90;;;;;;5034073;28;20427;-48
2021/05/29 01:38:50;;;;;;;9.67;8.27;;;11.10;99.90;;;;;;5033754;28;20982;-48
2021/05/29 01:41:20;;;;;;;11.60;8.07;;;11.20;99.90;;;;;;5033744;28;20501;-49
2021/05/29 01:43:49;;;;;;;15.50;9.47;;;11.00;99.90;;;;;;5033646;28;20971;-47
2021/05/29 01:46:17;;;;;;;13.63;10.00;;;10.90;99.90;;;;;;5033651;28;20522;-49
2021/05/29 01:48:45;;;;;;;12.93;9.07;;;10.50;99.90;;;;;;5033543;28;20523;-48
2021/05/29 01:51:12;;;;;;;13.20;10.03;;;11.00;99.90;;;;;;5033474;28;20802;-49
2021/05/29 01:53:39;;;;;;;11.13;8.90;;;10.90;99.90;;;;;;5033499;28;20582;-48
2021/05/29 01:56:07;;;;;;;13.07;9.17;;;10.80;99.90;;;;;;5033782;28;20439;-48
2021/05/29 01:58:35;;;;;;;10.97;8.77;;;10.80;99.90;;;;;;5033329;28;20432;-48
2021/05/29 02:01:03;;;;;;;12.30;8.07;;;10.60;99.90;;;;;;5033405;28;20447;-48
2021/05/29 02:03:29;;;;;;;10.57;8.50;;;10.70;99.90;;;;;;5033533;28;20468;-48
2021/05/29 02:05:55;;;;;;;11.63;8.97;;;10.70;99.90;;;;;;5033384;28;20481;-48
2021/05/29 02:08:21;;;;;;;16.50;8.83;;;11.30;99.90;;;;;;5032952;28;20446;-48
2021/05/29 02:10:48;;;;;;;17.77;9.10;;;11.10;99.90;;;;;;5033391;28;20797;-49
2021/05/29 02:13:22;;;;;;;9.03;8.13;;;10.50;99.90;;;;;;5033013;28;20523;-50
2021/05/29 02:15:50;;;;;;;9.30;8.40;;;10.60;99.90;;;;;;5033468;28;20427;-47
2021/05/29 02:18:16;;;;;;;11.47;9.33;;;10.70;99.90;;;;;;5033099;28;20439;-49
2021/05/29 02:20:44;;;;;;;10.57;7.60;;;10.70;99.90;;;;;;5056349;22;20488;-48
2021/05/29 02:23:12;;;;;;;11.47;8.57;;;11.10;99.90;;;;;;5030919;28;20562;-48
2021/05/29 02:25:39;;;;;;;9.23;7.77;;;10.50;99.90;;;;;;5030763;28;20548;-48
2021/05/29 02:28:05;;;;;;;10.63;8.20;;;10.60;99.90;;;;;;5012488;28;20466;-48
2021/05/29 02:30:32;;;;;;;7.47;6.53;;;11.30;99.90;;;;;;5030634;28;20537;-48
2021/05/29 02:32:59;;;;;;;13.93;8.67;;;10.60;99.90;;;;;;5030691;28;20931;-48
2021/05/29 02:35:26;;;;;;;12.07;7.53;;;10.50;99.90;;;;;;5030557;28;20915;-48
2021/05/29 02:37:52;;;;;;;14.70;8.03;;;10.70;99.90;;;;;;5030383;28;20444;-48
2021/05/29 02:40:19;;;;;;;10.83;8.20;;;10.60;99.90;;;;;;5030029;28;20468;-48
2021/05/29 02:42:45;;;;;;;9.63;8.20;;;10.20;99.90;;;;;;5030349;28;20459;-48
2021/05/29 02:45:12;;;;;;;11.00;8.03;;;10.60;99.90;;;;;;5030235;28;20479;-48
2021/05/29 02:47:38;;;;;;;9.90;8.53;;;10.50;99.90;;;;;;5030426;28;20888;-48
2021/05/29 02:50:06;;;;;;;10.70;8.93;;;10.60;99.90;;;;;;5030059;28;20448;-48
2021/05/29 02:52:32;;;;;;;16.13;8.63;;;10.70;99.90;;;;;;5030234;28;20455;-48
2021/05/29 02:54:59;;;;;;;14.40;9.30;;;10.40;99.90;;;;;;5029127;28;20863;-48
2021/05/29 02:57:25;;;;;;;14.00;9.17;;;10.20;99.90;;;;;;5029650;28;20453;-48
2021/05/29 02:59:51;;;;;;;14.70;10.50;;;10.60;99.90;;;;;;5029578;28;20931;-48
2021/05/29 03:02:18;;;;;;;19.43;11.00;;;10.50;99.90;;;;;;5030244;28;20454;-48
2021/05/29 03:04:44;;;;;;;11.47;9.97;;;10.30;99.90;;;;;;5030960;28;20485;-47
2021/05/29 03:07:11;;;;;;;15.60;10.13;;;10.40;99.90;;;;;;5030811;28;20435;-48
2021/05/29 03:09:37;;;;;;;14.50;11.13;;;10.20;99.90;;;;;;5012345;28;20451;-48
2021/05/29 03:12:04;;;;;;;14.93;12.73;;;10.40;99.90;;;;;;5030555;28;20523;-48
2021/05/29 03:14:30;;;;;;;17.77;14.17;;;10.10;99.90;;;;;;5030417;28;20432;-48
2021/05/29 03:16:56;;;;;;;16.27;12.60;;;10.40;99.90;;;;;;5030039;28;20423;-48
2021/05/29 03:19:23;;;;;;;16.60;12.33;;;10.40;99.90;;;;;;5029454;28;20822;-48
2021/05/29 03:21:49;;;;;;;19.23;12.27;;;10.40;99.90;;;;;;5029552;28;20955;-48
2021/05/29 03:24:16;;;;;;;17.00;12.97;;;10.50;99.90;;;;;;5029648;28;20475;-48
2021/05/29 03:26:42;;;;;;;15.73;11.90;;;10.30;99.90;;;;;;5012030;28;20443;-48
2021/05/29 03:29:09;;;;;;;12.37;11.13;;;10.10;99.90;;;;;;5029720;28;20501;-48
2021/05/29 03:31:35;;;;;;;19.10;12.00;;;10.40;99.90;;;;;;5030033;28;20447;-48
2021/05/29 03:34:01;;;;;;;20.60;12.77;;;10.10;99.90;;;;;;5012209;28;20458;-48
2021/05/29 03:36:27;;;;;;;18.83;11.57;;;9.60;99.90;;;;;;5029976;28;20950;-48
2021/05/29 03:38:54;;;;;;;18.07;11.63;;;10.40;99.90;;;;;;5029460;28;20435;-48
2021/05/29 03:41:21;;;;;;;15.10;11.57;;;10.20;99.90;;;;;;5011968;28;20506;-48
2021/05/29 03:43:47;;;;;;;17.47;10.97;;;10.20;99.90;;;;;;5029544;28;20544;-48
2021/05/29 03:46:13;;;;;;;16.30;10.93;;;10.10;99.90;;;;;;5029646;28;20926;-48
2021/05/29 03:48:39;;;;;;;15.07;10.50;;;9.90;99.90;;;;;;5029304;28;20436;-48
2021/05/29 03:51:06;;;;;;;14.37;10.97;;;10.30;99.90;;;;;;5029627;28;20482;-48
2021/05/29 03:53:32;;;;;;;17.93;11.97;;;10.60;99.90;;;;;;5029691;28;20860;-48
2021/05/29 03:55:58;;;;;;;18.23;11.93;;;10.30;99.90;;;;;;5029692;28;20435;-48
2021/05/29 03:58:25;;;;;;;22.93;13.00;;;10.70;99.90;;;;;;5029296;28;20925;-48
2021/05/29 04:00:51;;;;;;;17.80;12.00;;;10.00;99.90;;;;;;5029707;28;20447;-48
2021/05/29 04:03:18;;;;;;;16.30;11.47;;;10.40;99.90;;;;;;5029691;28;20568;-48
2021/05/29 04:05:44;;;;;;;19.40;13.30;;;10.10;99.90;;;;;;5030065;28;20628;-48
2021/05/29 04:08:10;;;;;;;18.97;12.23;;;10.40;99.90;;;;;;5029654;28;20808;-48
2021/05/29 04:10:37;;;;;;;19.03;12.83;;;10.20;99.90;;;;;;5029568;28;20464;-48
2021/05/29 04:13:03;;;;;;;19.27;12.17;;;10.30;99.90;;;;;;5029336;28;20435;-48
2021/05/29 04:15:30;;;;;;;16.50;11.80;;;10.20;99.90;;;;;;5029566;28;20434;-49
2021/05/29 04:17:57;;;;;;;23.87;14.80;;;10.10;99.90;;;;;;5029706;28;20423;-48
2021/05/29 04:20:25;;;;;;;19.23;12.07;;;10.00;99.90;;;;;;5029993;28;20884;-49
2021/05/29 04:22:52;;;;;;;19.90;11.33;;;10.40;99.90;;;;;;5033267;28;20463;-49
2021/05/29 04:25:20;;;;;;;17.00;12.80;;;10.10;99.90;;;;;;5032908;28;20545;-48
2021/05/29 04:27:47;;;;;;;21.00;12.37;;;9.70;99.90;;;;;;5032975;28;20534;-49
2021/05/29 04:30:16;;;;;;;20.60;12.50;;;10.20;99.90;;;;;;5032739;28;20788;-48
2021/05/29 04:32:44;;;;;;;18.60;11.23;;;10.30;99.90;;;;;;5032693;28;20538;-49
2021/05/29 04:35:11;;;;;;;17.03;12.60;;;10.20;99.90;;;;;;5033284;28;20573;-49
2021/05/29 04:37:38;;;;;;;17.70;12.80;;;10.50;99.90;;;;;;5032777;28;20528;-48
2021/05/29 04:40:06;;;;;;;18.37;12.77;;;10.50;99.90;;;;;;5032379;28;20442;-49
2021/05/29 04:42:32;;;;;;;19.40;12.50;;;10.70;99.90;;;;;;5032637;28;21012;-49
2021/05/29 04:44:59;;;;;;;19.83;12.47;;;10.50;99.90;;;;;;5032621;28;20879;-48
2021/05/29 04:47:25;;;;;;;20.70;13.63;;;10.40;99.90;;;;;;5033238;28;20431;-49
2021/05/29 04:49:52;;;;;;;18.30;14.10;;;10.10;99.90;;;;;;5032601;28;20512;-49
2021/05/29 04:52:18;;;;;;;22.10;14.70;;;10.60;99.90;;;;;;5032547;28;20529;-48
2021/05/29 04:54:44;;;;;;;18.40;13.90;;;10.10;99.90;;;;;;5033227;28;20954;-48
2021/05/29 04:57:10;;;;;;;26.83;14.57;;;10.20;99.90;;;;;;5032940;28;20438;-48
2021/05/29 04:59:36;;;;;;;20.47;13.67;;;10.40;99.90;;;;;;5032566;28;20447;-49
2021/05/29 05:02:03;;;;;;;16.43;13.03;;;10.40;99.90;;;;;;5032477;28;20468;-48
2021/05/29 05:04:29;;;;;;;19.67;13.20;;;10.60;99.90;;;;;;5032657;28;20505;-49
2021/05/29 05:06:56;;;;;;;18.43;11.60;;;10.40;99.90;;;;;;5032797;28;20435;-49
2021/05/29 05:09:23;;;;;;;15.00;13.00;;;10.30;99.90;;;;;;5032977;28;20435;-49
2021/05/29 05:11:49;;;;;;;18.40;13.20;;;10.70;99.90;;;;;;5032225;28;20989;-49
2021/05/29 05:14:16;;;;;;;20.23;13.80;;;10.20;99.90;;;;;;5032442;28;20610;-48
2021/05/29 05:16:42;;;;;;;14.07;12.20;;;10.40;99.90;;;;;;5032145;28;21161;-49
2021/05/29 05:19:08;;;;;;;16.03;11.20;;;10.00;99.90;;;;;;5032159;28;20432;-49
2021/05/29 05:21:34;;;;;;;18.27;13.10;;;10.30;99.90;;;;;;5032526;28;20520;-48
2021/05/29 05:24:01;;;;;;;20.53;13.00;;;10.40;99.90;;;;;;5032665;28;20475;-48
2021/05/29 05:26:27;;;;;;;15.00;12.27;;;10.20;99.90;;;;;;5032586;28;20766;-49
2021/05/29 05:28:54;;;;;;;16.67;12.00;;;10.20;99.90;;;;;;5032204;28;20431;-49
2021/05/29 05:31:20;;;;;;;16.60;12.53;;;10.30;99.90;;;;;;5031740;28;20443;-48
2021/05/29 05:33:47;;;;;;;15.63;12.83;;;10.40;99.90;;;;;;5031966;28;20442;-49
2021/05/29 05:36:14;;;;;;;14.53;12.37;;;10.50;99.90;;;;;;5031746;28;20438;-49
2021/05/29 05:38:42;;;;;;;18.10;12.90;;;10.40;99.90;;;;;;5031738;28;20471;-48
2021/05/29 05:41:09;;;;;;;13.93;12.20;;;10.50;99.90;;;;;;5032051;28;20552;-48
2021/05/29 05:43:36;;;;;;;13.60;12.10;;;10.60;99.90;;;;;;5031560;28;20537;-48
2021/05/29 05:46:03;;;;;;;15.63;12.20;;;10.40;99.90;;;;;;5031483;28;20434;-48
2021/05/29 05:48:31;;;;;;;18.53;13.10;;;10.40;99.90;;;;;;5031246;28;20789;-49
2021/05/29 05:50:58;;;;;;;19.40;12.97;;;10.70;99.90;;;;;;5031195;28;20470;-49
2021/05/29 05:53:26;;;;;;;16.30;12.83;;;10.70;99.90;;;;;;5031376;28;20973;-48
2021/05/29 05:55:54;;;;;;;15.77;12.70;;;10.70;99.90;;;;;;5031329;28;20419;-49
2021/05/29 05:58:22;;;;;;;17.90;13.77;;;10.70;99.90;;;;;;5030941;28;20444;-49
2021/05/29 06:00:48;;;;;;;14.83;12.10;;;10.90;99.90;;;;;;5031587;28;20451;-49
2021/05/29 06:03:14;;;;;;;15.20;13.30;;;10.90;99.90;;;;;;5013208;28;20474;-48
2021/05/29 06:05:40;;;;;;;18.57;12.77;;;11.00;99.90;;;;;;5031142;28;20516;-48
2021/05/29 06:08:06;;;;;;;15.40;12.10;;;11.00;99.90;;;;;;5030997;28;20480;-48
2021/05/29 06:10:33;;;;;;;15.20;12.40;;;11.50;99.90;;;;;;5031407;28;20459;-49
2021/05/29 06:12:59;;;;;;;16.37;12.50;;;11.40;99.90;;;;;;5031176;28;20514;-48
2021/05/29 06:18:41;;;;;;;17.60;14.27;;;11.50;99.90;;;;;;5030431;28;20435;-48
2021/05/29 06:21:08;;;;;;;17.10;13.47;;;11.80;99.90;;;;;;5030500;28;20605;-49
2021/05/29 06:23:34;;;;;;;18.17;13.37;;;11.80;99.90;;;;;;5030637;28;20869;-48
2021/05/29 06:26:00;;;;;;;18.80;12.97;;;11.50;99.90;;;;;;5030357;28;20481;-49
2021/05/29 06:28:26;;;;;;;16.97;12.70;;;11.80;99.90;;;;;;5030256;28;20522;-49
2021/05/29 06:30:53;;;;;;;15.03;13.20;;;11.30;99.90;;;;;;5030486;28;20928;-49
2021/05/29 06:33:19;;;;;;;14.87;12.60;;;11.80;99.90;;;;;;5030285;28;20453;-49
2021/05/29 06:35:45;;;;;;;16.13;13.37;;;11.30;99.90;;;;;;5030322;28;20432;-49
2021/05/29 06:38:12;;;;;;;21.00;13.50;;;11.30;99.90;;;;;;5029777;28;20933;-49
2021/05/29 06:40:38;;;;;;;23.53;13.73;;;11.10;99.90;;;;;;5012057;28;20604;-48
2021/05/29 06:43:04;;;;;;;17.40;13.73;;;11.90;99.90;;;;;;5029751;28;20933;-47
2021/05/29 06:45:31;;;;;;;17.83;13.40;;;11.90;99.90;;;;;;5012790;28;20485;-49
2021/05/29 06:47:58;;;;;;;15.03;12.90;;;12.00;99.90;;;;;;5030807;28;20448;-47
2021/05/29 06:50:24;;;;;;;16.73;12.30;;;11.90;99.90;;;;;;5030273;28;20538;-48
2021/05/29 06:52:53;;;;;;;14.20;12.70;;;11.80;99.90;;;;;;5029833;28;20571;-47
2021/05/29 07:00:49;;;;;;;20.97;16.37;;;12.10;99.90;;;;;;5029980;28;20479;-48
2021/05/29 07:03:17;;;;;;;18.37;15.20;;;12.20;99.90;;;;;;5030018;28;20441;-48
2021/05/29 07:05:43;;;;;;;19.60;14.20;;;12.60;99.90;;;;;;5030007;28;20698;-48
2021/05/29 07:08:09;;;;;;;15.37;13.60;;;12.40;99.90;;;;;;5029427;28;20442;-48
2021/05/29 07:10:35;;;;;;;21.50;13.83;;;12.10;99.90;;;;;;5030127;28;20555;-48
2021/05/29 07:13:02;;;;;;;18.73;13.90;;;13.00;99.90;;;;;;5029978;28;20432;-48
2021/05/29 07:15:32;;;;;;;21.13;13.90;;;12.90;99.90;;;;;;5030040;28;20432;-48
2021/05/29 07:18:04;;;;;;;15.67;12.50;;;12.70;99.90;;;;;;5029693;28;20436;-48
2021/05/29 07:20:32;;;;;;;19.30;14.77;;;12.90;99.90;;;;;;5030021;28;20554;-48
2021/05/29 07:22:58;;;;;;;18.63;15.10;;;13.10;99.90;;;;;;5030054;28;20588;-48
2021/05/29 07:25:24;;;;;;;20.17;14.63;;;13.10;99.90;;;;;;5029989;28;20577;-48
2021/05/29 07:27:51;;;;;;;15.90;12.97;;;13.50;99.90;;;;;;5030111;28;20909;-50
2021/05/29 07:30:18;;;;;;;16.03;12.50;;;13.80;99.90;;;;;;5029894;28;20800;-48
2021/05/29 07:32:44;;;;;;;16.00;13.27;;;13.40;99.90;;;;;;5030366;28;20442;-48
2021/05/29 07:35:11;;;;;;;18.47;13.17;;;13.60;99.90;;;;;;5030256;28;20441;-48
2021/05/29 07:37:38;;;;;;;18.17;11.90;;;14.00;99.90;;;;;;5030458;28;20437;-48
2021/05/29 07:40:06;;;;;;;14.00;11.23;;;13.90;99.90;;;;;;5030197;28;20525;-48
2021/05/29 07:42:32;;;;;;;16.03;9.97;;;14.20;99.90;;;;;;5029763;28;20468;-48
2021/05/29 07:44:59;;;;;;;14.50;10.20;;;14.00;99.90;;;;;;5029274;28;20518;-48
2021/05/29 07:47:25;;;;;;;12.40;10.60;;;14.40;99.90;;;;;;5029510;28;20457;-48
2021/05/29 07:49:51;;;;;;;10.30;9.30;;;14.00;99.90;;;;;;5029181;28;20923;-48
2021/05/29 07:52:17;;;;;;;13.27;9.40;;;14.20;99.90;;;;;;5029461;28;20490;-48
2021/05/29 07:54:44;;;;;;;14.43;9.07;;;13.80;99.90;;;;;;5030812;28;20477;-48
2021/05/29 07:57:11;;;;;;;12.97;9.60;;;14.10;99.90;;;;;;5033722;28;20430;-48
2021/05/29 07:59:38;;;;;;;13.40;9.27;;;14.40;99.90;;;;;;5033041;28;20836;-48
2021/05/29 08:02:04;;;;;;;10.90;8.40;;;14.30;99.90;;;;;;5033437;28;20513;-48
2021/05/29 08:04:30;;;;;;;13.90;9.77;;;14.20;99.90;;;;;;5033314;28;20973;-48
2021/05/29 08:06:56;;;;;;;12.33;8.63;;;14.60;99.90;;;;;;5033101;28;20438;-48
2021/05/29 08:09:22;;;;;;;12.20;8.80;;;14.30;99.90;;;;;;5032951;28;20431;-48
2021/05/29 08:11:49;;;;;;;11.40;8.57;;;14.70;99.90;;;;;;5033389;28;20454;-48
2021/05/29 08:14:16;;;;;;;12.20;8.73;;;14.50;99.90;;;;;;5033394;28;20444;-48
2021/05/29 08:16:43;;;;;;;14.63;8.90;;;14.40;99.90;;;;;;5033343;28;20454;-49
2021/05/29 08:19:11;;;;;;;12.60;8.43;;;14.50;99.90;;;;;;5032718;28;20485;-49
2021/05/29 08:21:40;;;;;;;7.13;6.10;;;14.50;99.90;;;;;;5033292;28;20493;-49
2021/05/29 08:24:07;;;;;;;9.17;7.23;;;14.40;99.90;;;;;;5015129;28;20477;-48
2021/05/29 08:26:35;;;;;;;13.10;7.37;;;14.50;99.90;;;;;;5032746;28;20527;-48
2021/05/29 08:29:02;;;;;;;11.57;7.80;;;14.40;99.90;;;;;;5032402;28;20440;-48
2021/05/29 08:31:28;;;;;;;12.70;7.77;;;14.50;99.90;;;;;;5032833;28;20614;-48
2021/05/29 08:33:54;;;;;;;10.40;7.30;;;15.10;99.90;;;;;;5032744;28;21010;-48
2021/05/29 08:36:20;;;;;;;12.13;7.37;;;15.10;99.90;;;;;;5032691;28;20511;-48
2021/05/29 08:38:46;;;;;;;10.90;7.87;;;15.10;99.90;;;;;;5032369;28;20526;-49
2021/05/29 08:41:13;;;;;;;7.47;6.60;;;15.20;99.90;;;;;;5032333;28;20504;-50
2021/05/29 08:43:39;;;;;;;9.93;7.60;;;15.10;99.90;;;;;;5032274;28;20958;-50
2021/05/29 08:46:06;;;;;;;6.83;6.20;;;15.00;99.90;;;;;;5013941;28;20592;-50
2021/05/29 08:48:32;;;;;;;10.33;6.90;;;14.70;99.90;;;;;;5032094;28;20432;-48
2021/05/29 08:51:15;;;;;;;10.83;6.77;;;15.10;99.90;;;;;;5032110;28;20542;-48
2021/05/29 08:53:43;;;;;;;9.93;6.07;;;15.10;99.90;;;;;;5032387;28;20456;-48
2021/05/29 08:56:09;;;;;;;15.07;7.20;;;15.10;99.90;;;;;;5014098;28;20524;-49
2021/05/29 08:58:35;;;;;;;10.20;6.97;;;15.00;99.90;;;;;;5031684;28;20427;-49
2021/05/29 09:01:02;;;;;;;8.97;6.80;;;15.10;99.90;;;;;;5032192;28;20462;-49
2021/05/29 09:03:40;;;;;;;9.80;7.20;;;15.30;99.90;;;;;;5032175;28;20435;-50
2021/05/29 09:06:07;;;;;;;7.97;5.90;;;15.50;99.90;;;;;;5013278;28;20574;-49
2021/05/29 09:08:34;;;;;;;11.10;6.40;;;14.80;99.90;;;;;;5032018;28;20529;-50
2021/05/29 09:11:00;;;;;;;7.57;6.57;;;15.30;99.90;;;;;;5031961;28;20935;-50
2021/05/29 09:13:28;;;;;;;12.10;6.37;;;15.60;99.90;;;;;;5032164;28;20994;-50
2021/05/29 09:15:55;;;;;;;10.73;6.20;;;15.60;99.90;;;;;;5032107;28;20907;-49
2021/05/29 09:18:34;;;;;;;8.20;6.43;;;15.50;99.90;;;;;;5031748;28;20435;-49
2021/05/29 09:21:29;;;;;;;10.17;6.90;;;15.30;99.90;;;;;;5031457;28;20467;-50
2021/05/29 09:23:58;;;;;;;11.73;6.50;;;15.60;99.90;;;;;;5031515;28;20997;-49
2021/05/29 09:26:41;;;;;;;6.33;5.73;;;15.50;99.90;;;;;;5031619;28;20490;-49
2021/05/29 09:29:19;;;;;;;6.30;5.50;;;15.40;99.90;;;;;;5031495;28;20447;-49
2021/05/29 09:31:58;;;;;;;11.80;6.70;;;15.90;99.90;;;;;;5032062;28;20453;-50
2021/05/29 09:34:32;;;;;;;6.63;6.03;;;15.90;99.90;;;;;;5031773;28;20431;-48
2021/05/29 09:37:04;;;;;;;10.60;6.50;;;16.20;99.90;;;;;;5031623;28;20462;-48
2021/05/29 09:39:31;;;;;;;12.23;6.40;;;16.20;99.90;;;;;;5032124;28;20436;-48
2021/05/29 09:41:59;;;;;;;6.80;6.03;;;16.50;99.90;;;;;;5031248;28;20466;-47
2021/05/29 09:44:28;;;;;;;8.00;5.73;;;16.10;99.90;;;;;;5031824;28;20485;-47
2021/05/29 09:46:55;;;;;;;8.20;5.63;;;16.30;99.90;;;;;;5013143;28;20452;-48
2021/05/29 09:49:26;;;;;;;7.83;6.23;;;16.50;99.90;;;;;;5030665;28;20470;-48
2021/05/29 09:51:52;;;;;;;9.93;6.00;;;16.40;98.80;;;;;;5031197;28;20459;-48
2021/05/29 09:54:19;;;;;;;9.73;6.40;;;16.30;98.70;;;;;;5030758;28;20446;-48
2021/05/29 09:56:45;;;;;;;10.83;6.03;;;16.40;98.90;;;;;;5030461;28;20482;-49
2021/05/29 09:59:13;;;;;;;8.30;6.80;;;16.30;99.00;;;;;;5030344;28;20924;-49
2021/05/29 10:01:45;;;;;;;8.80;7.17;;;16.10;99.40;;;;;;5031122;28;20458;-49
2021/05/29 10:04:17;;;;;;;11.03;7.33;;;16.50;99.90;;;;;;5031033;28;20443;-49
2021/05/29 10:06:54;;;;;;;10.33;6.30;;;16.30;99.90;;;;;;5012729;28;20494;-49
2021/05/29 10:09:21;;;;;;;11.07;6.80;;;16.50;99.90;;;;;;5030231;28;20503;-50
2021/05/29 10:11:47;;;;;;;6.97;5.17;;;16.70;99.90;;;;;;5030992;28;20518;-49
2021/05/29 10:14:14;;;;;;;6.93;5.53;;;17.10;99.70;;;;;;5030612;28;20454;-47
2021/05/29 10:16:40;;;;;;;12.03;6.67;;;16.90;99.10;;;;;;5030634;28;20511;-48
2021/05/29 10:19:09;;;;;;;8.83;6.17;;;16.90;98.40;;;;;;5029588;28;20440;-48
2021/05/29 10:21:36;;;;;;;11.60;6.77;;;16.90;97.80;;;;;;5030397;28;21071;-49
2021/05/29 10:24:04;;;;;;;9.10;6.60;;;17.30;98.00;;;;;;5030264;28;20443;-49
2021/05/29 10:26:32;;;;;;;14.50;7.43;;;16.80;97.80;;;;;;5030049;28;20444;-49
2021/05/29 10:28:59;;;;;;;12.23;7.40;;;17.20;98.00;;;;;;5031208;28;20445;-50
2021/05/29 10:31:30;;;;;;;8.17;6.73;;;17.00;97.80;;;;;;5031043;28;20519;-49
2021/05/29 10:33:56;;;;;;;7.87;7.07;;;17.10;97.80;;;;;;5029921;28;20436;-49
2021/05/29 10:36:41;;;;;;;11.10;7.13;;;17.20;98.10;;;;;;5029802;28;20481;-49
2021/05/29 10:39:10;;;;;;;7.50;6.37;;;17.20;97.50;;;;;;5029660;28;20468;-49
2021/05/29 10:41:51;;;;;;;9.03;7.00;;;17.10;97.90;;;;;;5011627;28;20577;-48
2021/05/29 10:44:41;;;;;;;10.97;7.83;;;16.90;97.90;;;;;;5029644;28;20976;-49
2021/05/29 10:47:13;;;;;;;12.00;7.50;;;17.00;98.50;;;;;;5029848;28;20428;-48
2021/05/29 10:49:56;;;;;;;13.20;7.40;;;17.00;98.60;;;;;;5029656;28;20959;-49
2021/05/29 10:52:50;;;;;;;11.37;7.57;;;17.10;98.30;;;;;;5029498;28;20467;-49
2021/05/29 10:55:27;;;;;;;7.17;6.47;;;17.00;97.40;;;;;;5029701;28;20432;-48
2021/05/29 10:57:56;;;;;;;8.50;7.33;;;17.00;97.30;;;;;;5029957;28;20523;-50
2021/05/29 11:00:50;;;;;;;9.33;7.20;;;17.10;97.40;;;;;;5029273;28;20472;-49
2021/05/29 11:03:29;;;;;;;9.07;8.10;;;17.20;97.80;;;;;;4983344;28;20479;-49
2021/05/29 11:05:59;;;;;;;9.63;7.53;;;17.60;97.70;;;;;;5029991;28;20988;-49
2021/05/29 11:08:47;;;;;;;22.23;14.13;;;17.10;97.70;;;;;;5029541;28;20444;-49
2021/05/29 11:11:52;;;;;;;10.10;7.23;;;17.30;97.20;;;;;;5011228;28;20476;-49
2021/05/29 11:14:20;;;;;;;8.17;6.57;;;17.40;97.10;;;;;;5029444;28;20440;-49
2021/05/29 11:17:09;;;;;;;11.20;7.03;;;17.40;97.10;;;;;;5029722;28;20436;-49
2021/05/29 11:19:38;;;;;;;8.63;6.43;;;17.60;97.20;;;;;;5028984;28;20867;-49
2021/05/29 11:22:07;;;;;;;9.63;6.87;;;17.50;97.10;;;;;;5029125;28;20551;-49
2021/05/29 11:24:35;;;;;;;9.10;6.40;;;17.50;96.20;;;;;;5029564;28;20618;-48
2021/05/29 11:27:05;;;;;;;9.70;7.20;;;17.60;96.60;;;;;;5011559;28;20981;-49
2021/05/29 11:29:47;;;;;;;9.60;7.47;;;17.60;96.70;;;;;;5030079;28;20599;-49
2021/05/29 11:32:13;;;;;;;9.17;6.80;;;17.50;96.30;;;;;;5033241;28;20553;-49
2021/05/29 11:34:41;;;;;;;8.60;7.77;;;17.30;96.30;;;;;;5033277;28;20493;-49
2021/05/29 11:37:12;;;;;;;12.03;7.23;;;17.40;96.40;;;;;;5033234;28;20565;-49
2021/05/29 11:39:38;;;;;;;8.83;7.27;;;17.50;96.50;;;;;;5032984;28;20443;-50
2021/05/29 11:42:05;;;;;;;8.30;7.47;;;17.50;96.50;;;;;;5033469;28;20561;-50
2021/05/29 11:44:33;;;;;;;9.23;7.80;;;17.90;96.40;;;;;;5033343;28;20518;-50
2021/05/29 11:46:59;;;;;;;11.20;7.80;;;17.60;96.20;;;;;;5033577;28;20756;-48
2021/05/29 11:49:35;;;;;;;9.67;8.30;;;17.50;96.50;;;;;;5033122;28;20815;-48
2021/05/29 11:52:01;;;;;;;10.47;7.40;;;17.70;96.70;;;;;;5033445;28;20482;-48
2021/05/29 11:54:34;;;;;;;12.07;8.13;;;17.70;96.70;;;;;;5033097;28;20925;-49
2021/05/29 11:57:00;;;;;;;10.90;8.73;;;17.70;96.20;;;;;;5032897;28;20490;-49
2021/05/29 11:59:26;;;;;;;7.77;6.93;;;17.80;96.00;;;;;;5033067;28;20539;-51
2021/05/29 12:01:55;;;;;;;9.33;8.13;;;17.90;96.10;;;;;;5033402;28;20451;-49
2021/05/29 12:04:23;;;;;;;8.67;7.77;;;17.70;96.20;;;;;;5033581;28;20505;-50
2021/05/29 12:06:51;;;;;;;13.40;8.13;;;17.40;96.10;;;;;;5032717;28;20465;-48
2021/05/29 12:09:19;;;;;;;12.33;8.37;;;18.10;96.50;;;;;;5032142;28;20454;-50
2021/05/29 12:11:46;;;;;;;11.43;9.80;;;18.10;96.30;;;;;;5032541;28;20452;-49
2021/05/29 12:14:14;;;;;;;8.83;7.83;;;18.20;96.00;;;;;;5032828;28;20883;-48
2021/05/29 12:16:44;;;;;;;10.23;8.23;;;17.90;95.70;;;;;;5032563;28;20495;-48
2021/05/29 12:19:26;;;;;;;11.47;8.13;;;18.00;95.40;;;;;;5014324;28;20462;-49
2021/05/29 12:21:54;;;;;;;11.23;8.30;;;18.10;95.50;;;;;;5032356;28;20485;-48
2021/05/29 12:24:21;;;;;;;10.13;7.80;;;18.00;95.70;;;;;;5014303;28;20833;-49
2021/05/29 12:26:50;;;;;;;9.77;7.37;;;17.70;95.90;;;;;;5032478;28;20432;-49
2021/05/29 12:29:21;;;;;;;8.13;6.70;;;17.50;95.40;;;;;;5031991;28;20439;-48
2021/05/29 12:31:51;;;;;;;13.63;9.63;;;17.60;95.70;;;;;;5032389;28;21044;-49
2021/05/29 12:34:17;;;;;;;10.67;7.50;;;17.50;95.40;;;;;;5031930;28;20842;-48
2021/05/29 12:36:59;;;;;;;9.87;7.13;;;17.70;95.50;;;;;;5031914;28;20492;-49
2021/05/29 12:39:41;;;;;;;7.07;5.73;;;17.70;94.20;;;;;;5033175;28;20436;-49
2021/05/29 12:42:18;;;;;;;7.87;6.80;;;17.70;94.00;;;;;;5030783;28;20542;-48
2021/05/29 12:44:48;;;;;;;12.20;7.33;;;17.70;94.00;;;;;;5013708;28;20480;-49
2021/05/29 12:47:19;;;;;;;8.43;6.67;;;18.20;94.30;;;;;;5032293;28;20735;-49
2021/05/29 12:49:46;;;;;;;9.90;7.47;;;18.20;94.30;;;;;;5031803;28;20446;-50